McLeod, TX (75565)

7:29 PM CDT on August 20, 2014 (GMT -0500)
Rambo Community | Change Station
CLOSE
Current Station
Personal Weather Station
Location: Bivins, TX
Elevation: 272 ft
Nearby Weather Stations

Elev 272 ft 32.90 °N, 94.10 °W | Updated 3 minutes ago

Clear
Clear
88.0 °F
Feels Like 97 °F
N
0.0
Wind Variable Wind from SSE
Gusts 9.0 mph

Today
High -- | Low -- °F
--% Chance of Precip.
Yesterday
High -- | Low -- °F
Precip. -- in
6:42 AM 7:55 PM
Waning Crescent, 18% visible
Pressure 29.98 in
Visibility 10.0 miles
Clouds Clear
Heat Index 97 °F
Dew Point 74 °F
Humidity 64%
Rainfall 0.00 in
Snow Depth Not available.
UV 0 out of 12
Pollen 8.40 out of 12
Air Quality Not available.
Flu Activity Not available.
METAR KASL 210015Z AUTO 15004KT 10SM CLR 33/24 A2998 RMK AO1 T03300238

More Conditions Fewer Conditions

Pressure 29.98 in
Visibility 10.0 miles
Clouds Clear
Heat Index 97 °F
Dew Point 74 °F
Humidity 64%
Rainfall 0.00 in
Snow Depth Not available.
UV 0 out of 12
Pollen 8.40 out of 12
Air Quality Not available.
Flu Activity Not available.
METAR KASL 210015Z AUTO 15004KT 10SM CLR 33/24 A2998 RMK AO1 T03300238

More Conditions Fewer Conditions

10-Day Weather Forecast

Almanac

Astronomy

Aug. 20, 2014 Rise Set
Actual Time 6:42 AM CDT 7:55 PM CDT
Civil Twilight 6:17 AM CDT 8:21 PM CDT
Nautical Twilight 5:46 AM CDT 8:52 PM CDT
Astronomical Twilight 5:14 AM CDT 9:23 PM CDT
Moon 2:29 AM CDT (8/20) 4:36 PM CDT (8/20)
Length of Visible Light 14h 04m
Length of Day
13h 13m
Tomorrow will be 1m 50s shorter.
Waning Crescent, 18% of the Moon is Illuminated
Today
Waning Crescent
Aug 25
New
Sep 2
First Quarter
Sep 8
Full
Sep 15
Last Quarter

Today's Extremes

State Highs State Lows

Community

WunderPhotos

Upload Photos

1,745,807 photos uploaded!

WunderBlogs® & News

Nearby

Snow Depth

Station Depth Elevation
No new snow has been reported.

Earthquake Activity

City Distance Mag. Time & Date
No recent earthquake activity has been reported nearby.
Minimum magnitude displayed is 2.5.

Coastal Water Temperatures

Place Temperature
No Stations Reporting

Nearby Weather Stations